Time;durP1;ratioP1;P1;durP2;ratioP2;P2;SDS_P1;SDS_P2;PMS_P1;PMS_P2;Temp;Humidity;BMP_temperature;BMP_pressure;BME280_temperature;BME280_humidity;BME280_pressure;Samples;Min_cycle;Max_cycle;Signal;HPM_P1;HPM_P2
2022/05/14 00:00:31;;;;;;;22.50;11.10;;;;;;;13.05;58.47;98999.70;105676;1283;112664;-69
2022/05/14 00:03:03;;;;;;;19.20;10.10;;;;;;;13.05;58.56;98997.36;105464;1283;99311;-68
2022/05/14 00:05:32;;;;;;;23.10;11.10;;;;;;;13.05;58.59;99001.64;105668;1283;108311;-70
2022/05/14 00:08:01;;;;;;;22.20;10.30;;;;;;;13.06;58.75;98998.52;105573;1283;99449;-69
2022/05/14 00:10:32;;;;;;;19.60;9.50;;;;;;;13.06;58.61;98997.95;105682;1281;99194;-69
2022/05/14 00:13:06;;;;;;;20.30;8.50;;;;;;;13.05;58.74;99003.39;105429;1283;112756;-69
2022/05/14 00:15:43;;;;;;;16.60;8.90;;;;;;;13.05;58.83;99007.35;105510;1283;98013;-69
2022/05/14 00:18:11;;;;;;;20.00;9.40;;;;;;;13.03;58.80;99013.69;105746;1281;107884;-69
2022/05/14 00:20:44;;;;;;;17.10;8.20;;;;;;;13.04;58.96;99017.42;105668;1281;99257;-70
2022/05/14 00:23:12;;;;;;;18.30;8.90;;;;;;;13.04;59.04;99027.15;105687;1283;97005;-69
2022/05/14 00:25:47;;;;;;;18.90;8.80;;;;;;;13.04;58.89;99028.59;105682;1281;113348;-69
2022/05/14 00:28:19;;;;;;;17.60;9.30;;;;;;;13.05;58.94;99023.53;105662;1283;99248;-72
2022/05/14 00:30:51;;;;;;;19.80;8.50;;;;;;;13.05;59.07;99017.89;105488;1282;107517;-69
2022/05/14 00:33:18;;;;;;;16.00;7.40;;;;;;;13.03;59.15;99021.42;105634;1283;99230;-69
2022/05/14 00:35:48;;;;;;;16.70;7.50;;;;;;;13.02;59.13;99026.77;105677;1281;99766;-69
2022/05/14 00:38:20;;;;;;;17.40;8.70;;;;;;;13.03;59.22;99030.67;105697;1282;113230;-68
2022/05/14 00:40:58;;;;;;;17.30;8.30;;;;;;;13.03;59.26;99027.83;105503;1283;99334;-67
2022/05/14 00:43:29;;;;;;;18.30;9.20;;;;;;;13.03;59.09;99029.61;105473;1283;106456;-68
2022/05/14 00:46:17;;;;;;;17.20;8.90;;;;;;;13.02;59.33;99031.48;105663;1282;99358;-67
2022/05/14 00:48:51;;;;;;;18.30;9.00;;;;;;;13.02;59.53;99038.08;105627;1283;99311;-68
2022/05/14 00:51:28;;;;;;;18.60;8.80;;;;;;;13.02;59.46;99031.66;105557;1283;112911;-67
2022/05/14 00:54:09;;;;;;;17.60;8.90;;;;;;;13.01;59.35;99034.58;105523;1282;99325;-69
2022/05/14 00:56:48;;;;;;;18.30;9.20;;;;;;;12.98;59.39;99038.58;105751;1284;107711;-67
2022/05/14 00:59:24;;;;;;;23.20;9.90;;;;;;;12.97;59.37;99039.48;105367;1283;99212;-67
2022/05/14 01:01:55;;;;;;;18.60;9.50;;;;;;;12.97;59.61;99043.09;105484;1285;99964;-67
2022/05/14 01:04:29;;;;;;;20.10;10.00;;;;;;;12.96;59.55;99044.23;105662;1283;112702;-67
2022/05/14 01:07:09;;;;;;;17.80;9.40;;;;;;;12.96;59.70;99047.27;105390;1282;99210;-68
2022/05/14 01:09:45;;;;;;;17.80;8.40;;;;;;;12.95;59.56;99047.50;105623;1283;108826;-66
2022/05/14 01:12:18;;;;;;;19.00;8.90;;;;;;;12.92;59.50;99047.73;105448;1282;99277;-68
2022/05/14 01:14:48;;;;;;;22.00;10.00;;;;;;;12.90;59.78;99046.34;105654;1283;99246;-69
2022/05/14 01:17:16;;;;;;;19.40;9.70;;;;;;;12.87;59.86;99051.34;105334;1283;113392;-69
2022/05/14 01:19:45;;;;;;;18.90;8.30;;;;;;;12.85;59.81;99054.06;105666;1283;99334;-66
2022/05/14 01:22:18;;;;;;;15.90;8.40;;;;;;;12.83;59.78;99058.30;105640;1283;109059;-68
2022/05/14 01:27:59;;;;;;;20.20;8.70;;;;;;;12.78;59.90;99060.46;105657;1283;99336;-69
2022/05/14 01:30:32;;;;;;;19.60;8.70;;;;;;;12.77;60.11;99063.52;105670;1283;112475;-68
2022/05/14 01:33:04;;;;;;;16.00;7.80;;;;;;;12.77;59.87;99061.64;105674;1283;98453;-69
2022/05/14 01:35:41;;;;;;;16.30;7.30;;;;;;;12.74;59.91;99069.66;105479;1283;107749;-68
2022/05/14 01:38:14;;;;;;;16.10;7.80;;;;;;;12.70;59.89;99074.31;105220;1285;98022;-68
2022/05/14 01:40:42;;;;;;;17.00;8.10;;;;;;;12.67;59.91;99075.60;105323;1284;99238;-68
2022/05/14 01:43:18;;;;;;;16.10;7.60;;;;;;;12.63;59.90;99075.92;105389;1284;113142;-69
2022/05/14 01:45:51;;;;;;;19.40;7.20;;;;;;;12.59;59.85;99070.67;105621;1283;99354;-69
2022/05/14 01:48:20;;;;;;;18.80;7.70;;;;;;;12.57;60.10;99071.07;105600;1283;108499;-68
2022/05/14 01:50:49;;;;;;;17.50;8.00;;;;;;;12.55;59.96;99071.98;105644;1283;99252;-70
2022/05/14 01:53:17;;;;;;;16.40;7.40;;;;;;;12.52;60.09;99077.36;105721;1283;99188;-68
2022/05/14 01:55:45;;;;;;;13.80;6.70;;;;;;;12.50;60.07;99078.91;105650;1283;112448;-69
2022/05/14 02:01:01;;;;;;;12.80;6.30;;;;;;;12.43;59.97;99086.56;105428;1284;108458;-70
2022/05/14 02:03:38;;;;;;;14.50;6.10;;;;;;;12.38;60.13;99088.02;105582;1283;99274;-70
2022/05/14 02:06:11;;;;;;;18.20;6.40;;;;;;;12.33;59.97;99088.59;105525;1283;99318;-69
2022/05/14 02:08:44;;;;;;;;;;;;;;;12.28;59.96;99090.04;105281;1284;112849;-68
2022/05/14 02:11:17;;;;;;;15.40;6.40;;;;;;;12.20;60.02;99093.35;105621;1283;99109;-67
2022/05/14 02:13:49;;;;;;;18.60;7.00;;;;;;;12.15;60.00;99094.43;105577;1284;107516;-67
2022/05/14 02:16:22;;;;;;;18.30;6.70;;;;;;;12.10;60.08;99101.46;105340;1284;99220;-67
2022/05/14 02:18:54;;;;;;;18.80;6.50;;;;;;;12.06;60.06;99104.05;105652;1284;99258;-69
2022/05/14 02:21:28;;;;;;;20.30;7.40;;;;;;;12.03;60.02;99105.89;105339;1284;112705;-67
2022/05/14 02:23:56;;;;;;;13.70;6.70;;;;;;;11.98;60.02;99105.36;105662;1284;99358;-68
2022/05/14 02:26:31;;;;;;;15.70;6.70;;;;;;;11.95;59.98;99105.78;105601;1284;108407;-66
2022/05/14 02:28:58;;;;;;;13.60;6.40;;;;;;;11.92;60.15;99101.92;105652;1283;98056;-66
2022/05/14 02:31:33;;;;;;;19.70;8.10;;;;;;;11.88;60.08;99105.96;105734;1283;99336;-69
2022/05/14 02:34:06;;;;;;;12.20;6.30;;;;;;;11.83;60.21;99108.45;105681;1283;113403;-68
2022/05/14 02:36:34;;;;;;;16.20;6.80;;;;;;;11.78;60.05;99111.84;105710;1283;99337;-69
2022/05/14 02:39:05;;;;;;;15.30;7.10;;;;;;;11.74;60.15;99113.96;105538;1284;108241;-69
2022/05/14 02:41:35;;;;;;;19.70;6.90;;;;;;;11.69;60.10;99114.53;105657;1282;99340;-69
2022/05/14 02:44:05;;;;;;;16.00;7.40;;;;;;;11.66;60.20;99113.85;105587;1283;98371;-69
2022/05/14 02:46:37;;;;;;;16.80;7.50;;;;;;;11.64;60.16;99111.18;105726;1283;113783;-68
2022/05/14 02:49:05;;;;;;;16.10;6.90;;;;;;;11.61;60.11;99115.98;105582;1284;99273;-66
2022/05/14 02:51:38;;;;;;;17.10;7.20;;;;;;;11.57;60.06;99122.52;105255;1284;108335;-66
2022/05/14 02:54:08;;;;;;;19.00;8.60;;;;;;;11.52;60.15;99126.13;105470;1284;99266;-64
2022/05/14 02:56:40;;;;;;;13.80;6.70;;;;;;;11.45;60.13;99127.66;105455;1284;98355;-64
2022/05/14 02:59:08;;;;;;;17.00;7.60;;;;;;;11.41;60.32;99128.52;105461;1284;113221;-64
2022/05/14 03:01:48;;;;;;;18.40;7.30;;;;;;;11.38;60.24;99129.13;105447;1284;99234;-67
2022/05/14 03:04:26;;;;;;;15.90;7.20;;;;;;;11.32;60.19;99127.40;105490;1284;107772;-66
2022/05/14 03:06:58;;;;;;;19.70;8.20;;;;;;;11.28;60.41;99130.00;105560;1283;100032;-67
2022/05/14 03:09:27;;;;;;;20.00;8.50;;;;;;;11.26;60.45;99130.16;105592;1283;99255;-67
2022/05/14 03:11:57;;;;;;;19.00;8.20;;;;;;;11.23;60.35;99133.02;105469;1283;113446;-66
2022/05/14 03:14:31;;;;;;;17.50;7.70;;;;;;;11.18;60.37;99131.45;105463;1284;99210;-68
2022/05/14 03:17:04;;;;;;;19.40;8.40;;;;;;;11.12;60.42;99125.66;105516;1283;108450;-69
2022/05/14 03:19:34;;;;;;;15.50;7.00;;;;;;;11.09;60.51;99119.87;105571;1283;99350;-68
2022/05/14 03:22:07;;;;;;;15.60;7.50;;;;;;;11.08;60.73;99114.62;105575;1283;97870;-68
2022/05/14 03:24:39;;;;;;;18.50;8.00;;;;;;;11.08;60.59;99118.54;105572;1283;112413;-64
2022/05/14 03:27:12;;;;;;;17.80;8.60;;;;;;;11.06;60.55;99122.25;105609;1283;99255;-65
2022/05/14 03:29:45;;;;;;;18.00;7.70;;;;;;;11.04;60.66;99124.52;105515;1284;107968;-65
2022/05/14 03:32:13;;;;;;;20.80;8.30;;;;;;;11.05;60.77;99125.14;105525;1284;99402;-66
2022/05/14 03:34:45;;;;;;;17.20;8.00;;;;;;;11.05;60.79;99127.08;105309;1285;96684;-67
2022/05/14 03:37:17;;;;;;;15.50;7.70;;;;;;;11.06;60.77;99128.59;105558;1284;112792;-68
2022/05/14 03:39:45;;;;;;;16.80;8.20;;;;;;;11.06;60.77;99133.07;105471;1284;98320;-68
2022/05/14 03:42:13;;;;;;;15.90;7.70;;;;;;;11.06;60.75;99130.59;105485;1284;108155;-66
2022/05/14 03:44:48;;;;;;;16.30;7.30;;;;;;;11.04;60.77;99131.75;105056;1284;309003;-69
2022/05/14 03:47:24;;;;;;;15.50;7.30;;;;;;;11.04;60.78;99137.09;105485;1284;99836;-66
2022/05/14 03:49:52;;;;;;;20.60;7.20;;;;;;;11.01;60.77;99144.08;105249;1285;112918;-67
2022/05/14 03:52:22;;;;;;;16.90;7.40;;;;;;;10.97;60.80;99148.42;105455;1284;97013;-67
2022/05/14 03:54:50;;;;;;;16.20;7.50;;;;;;;10.97;60.75;99147.16;105406;1284;108241;-67
2022/05/14 03:57:20;;;;;;;16.30;7.20;;;;;;;10.96;60.88;99146.72;105526;1284;99269;-68
2022/05/14 03:59:51;;;;;;;15.70;7.50;;;;;;;10.97;60.94;99147.35;105395;1284;99213;-68
2022/05/14 04:02:20;;;;;;;15.60;7.20;;;;;;;10.98;60.82;99147.14;105615;1283;113115;-69
2022/05/14 04:04:52;;;;;;;16.90;7.00;;;;;;;10.97;60.91;99149.66;105632;1284;99355;-69
2022/05/14 04:07:20;;;;;;;17.40;7.20;;;;;;;10.98;61.00;99148.18;105633;1284;107436;-66
2022/05/14 04:09:48;;;;;;;19.10;7.10;;;;;;;10.99;60.93;99151.60;105633;1284;99204;-67
2022/05/14 04:12:19;;;;;;;16.00;6.80;;;;;;;11.00;60.97;99158.80;105545;1283;99271;-70
2022/05/14 04:14:49;;;;;;;16.30;7.20;;;;;;;11.03;61.04;99161.31;105565;1284;113362;-69
2022/05/14 04:17:17;;;;;;;16.30;7.10;;;;;;;11.05;61.14;99158.85;105264;1284;99261;-69
2022/05/14 04:19:47;;;;;;;18.90;7.20;;;;;;;11.07;61.13;99157.80;105556;1284;109133;-69
2022/05/14 04:22:20;;;;;;;14.60;7.10;;;;;;;11.08;61.03;99160.91;105224;1284;99436;-69
2022/05/14 04:24:50;;;;;;;16.10;6.90;;;;;;;11.10;61.22;99161.48;105488;1284;99317;-69
2022/05/14 04:27:18;;;;;;;19.50;7.10;;;;;;;11.14;61.25;99161.18;105456;1283;113381;-70
2022/05/14 04:29:46;;;;;;;18.10;6.50;;;;;;;11.18;61.14;99159.66;105515;1284;99215;-68
2022/05/14 04:32:16;;;;;;;16.40;7.40;;;;;;;11.20;61.12;99161.67;105560;1284;108393;-69
2022/05/14 04:34:48;;;;;;;14.80;6.70;;;;;;;11.21;61.18;99162.67;105563;1284;97693;-68
2022/05/14 04:37:16;;;;;;;15.80;6.70;;;;;;;11.24;61.30;99162.60;105579;1283;99281;-69
2022/05/14 04:39:43;;;;;;;16.40;7.20;;;;;;;11.27;61.21;99164.13;105564;1283;112536;-67
2022/05/14 04:42:14;;;;;;;15.50;7.60;;;;;;;11.30;61.25;99164.27;105422;1283;99247;-68
2022/05/14 04:44:46;;;;;;;16.40;6.90;;;;;;;11.33;61.21;99168.55;105476;1284;106747;-70
2022/05/14 04:47:20;;;;;;;16.50;6.60;;;;;;;11.36;61.10;99169.91;105449;1284;99295;-69
2022/05/14 04:49:53;;;;;;;15.60;6.20;;;;;;;11.39;61.21;99168.44;105482;1284;99299;-69
2022/05/14 04:52:20;;;;;;;16.10;6.10;;;;;;;11.42;61.39;99169.25;105589;1284;113704;-68
2022/05/14 04:54:48;;;;;;;17.50;7.00;;;;;;;11.44;61.17;99164.83;105583;1284;99284;-68
2022/05/14 04:57:16;;;;;;;20.80;7.70;;;;;;;11.46;61.29;99169.13;105603;1284;107773;-69
2022/05/14 04:59:44;;;;;;;14.90;7.00;;;;;;;11.48;61.13;99169.69;105501;1284;99368;-70
2022/05/14 05:05:09;;;;;;;17.80;7.80;;;;;;;11.54;61.37;99169.45;105523;1284;113152;-69
2022/05/14 05:07:42;;;;;;;18.00;7.20;;;;;;;11.58;61.38;99169.83;105501;1284;99243;-69
2022/05/14 05:10:10;;;;;;;13.00;6.30;;;;;;;11.64;61.45;99166.96;105560;1284;108941;-70
2022/05/14 05:12:47;;;;;;;12.80;6.10;;;;;;;11.68;61.28;99165.18;105582;1284;99345;-69
2022/05/14 05:15:15;;;;;;;17.40;6.50;;;;;;;11.72;61.41;99165.47;105206;1284;99298;-71
2022/05/14 05:17:48;;;;;;;14.90;7.00;;;;;;;11.75;61.35;99172.48;105273;1284;111836;-70
2022/05/14 05:20:25;;;;;;;16.20;6.70;;;;;;;11.78;61.38;99180.11;105547;1284;99962;-70
2022/05/14 05:22:53;;;;;;;17.60;7.00;;;;;;;11.81;61.47;99175.77;105466;1284;108376;-69
2022/05/14 05:25:23;;;;;;;14.40;6.40;;;;;;;11.86;61.39;99176.66;105480;1284;100315;-68
2022/05/14 05:27:51;;;;;;;21.00;7.30;;;;;;;11.90;61.43;99178.81;105535;1283;99281;-69
2022/05/14 05:30:19;;;;;;;15.20;7.10;;;;;;;11.96;61.52;99181.61;105549;1284;112725;-69
2022/05/14 05:32:53;;;;;;;12.70;6.10;;;;;;;12.00;61.61;99186.95;105494;1284;99365;-70
2022/05/14 05:35:26;;;;;;;13.60;5.80;;;;;;;12.06;61.43;99189.20;105511;1284;108410;-68
2022/05/14 05:37:58;;;;;;;14.00;6.10;;;;;;;12.09;61.47;99192.36;105660;1284;99346;-70
2022/05/14 05:40:26;;;;;;;13.70;5.70;;;;;;;12.13;61.43;99198.30;105359;1284;100906;-67
2022/05/14 05:42:54;;;;;;;13.40;6.00;;;;;;;12.17;61.48;99204.85;105657;1283;113219;-70
2022/05/14 05:45:27;;;;;;;17.80;7.00;;;;;;;12.25;61.47;99212.98;105612;1284;99292;-69
2022/05/14 05:47:59;;;;;;;14.80;6.40;;;;;;;12.29;61.34;99213.18;105508;1283;108182;-68
2022/05/14 05:50:33;;;;;;;13.90;6.30;;;;;;;12.34;61.27;99211.77;105484;1284;99269;-69
2022/05/14 05:53:01;;;;;;;10.90;5.80;;;;;;;12.40;61.48;99210.59;105547;1283;99329;-68
2022/05/14 05:58:22;;;;;;;15.60;5.70;;;;;;;12.53;61.47;99210.64;105610;1283;99358;-69
2022/05/14 06:00:50;;;;;;;13.20;5.80;;;;;;;12.57;61.37;99215.11;105535;1284;108453;-69
2022/05/14 06:03:22;;;;;;;13.60;5.00;;;;;;;12.64;61.33;99216.86;105486;1284;99285;-69
2022/05/14 06:05:53;;;;;;;17.90;6.10;;;;;;;12.70;61.16;99210.23;105529;1284;98361;-68
2022/05/14 06:08:25;;;;;;;20.40;6.10;;;;;;;12.74;61.37;99216.82;105528;1283;113497;-69
2022/05/14 06:10:57;;;;;;;13.20;5.40;;;;;;;12.82;61.28;99217.63;105563;1284;96767;-68
2022/05/14 06:13:25;;;;;;;12.00;5.30;;;;;;;12.87;61.15;99219.86;105517;1283;107909;-69
2022/05/14 06:15:56;;;;;;;10.90;4.80;;;;;;;12.93;61.19;99217.09;105541;1283;99262;-69
2022/05/14 06:18:28;;;;;;;11.00;5.00;;;;;;;13.02;61.28;99223.33;105571;1284;97681;-69
2022/05/14 06:20:56;;;;;;;12.30;4.60;;;;;;;13.10;61.16;99217.73;105533;1284;113366;-71
2022/05/14 06:23:27;;;;;;;13.20;4.60;;;;;;;13.17;61.17;99216.84;105645;1284;99243;-71
2022/05/14 06:25:55;;;;;;;14.40;4.30;;;;;;;13.23;60.97;99220.40;105636;1284;107984;-72
2022/05/14 06:28:25;;;;;;;15.60;4.40;;;;;;;13.28;60.97;99222.88;105611;1283;99277;-68
2022/05/14 06:30:58;;;;;;;13.60;4.80;;;;;;;13.31;61.07;99224.21;105632;1283;99243;-69
2022/05/14 06:33:26;;;;;;;11.90;5.20;;;;;;;13.39;61.11;99220.92;105564;1283;112806;-69
2022/05/14 06:35:58;;;;;;;14.10;5.50;;;;;;;13.46;60.93;99219.80;105324;1284;97115;-69
2022/05/14 06:38:29;;;;;;;12.00;4.70;;;;;;;13.53;60.91;99217.30;105574;1283;107152;-69
2022/05/14 06:41:04;;;;;;;12.60;5.20;;;;;;;13.61;61.01;99211.15;105331;1283;99320;-68
2022/05/14 06:43:36;;;;;;;20.10;5.20;;;;;;;13.69;60.90;99211.16;105593;1283;96618;-68
2022/05/14 06:46:09;;;;;;;12.80;4.80;;;;;;;13.76;60.81;99213.64;105540;1283;112777;-68
2022/05/14 06:48:41;;;;;;;14.80;5.40;;;;;;;13.79;60.78;99212.12;105546;1284;99173;-68
2022/05/14 06:51:22;;;;;;;15.90;5.20;;;;;;;13.85;60.76;99208.09;105591;1284;108328;-70
2022/05/14 06:53:58;;;;;;;10.60;4.40;;;;;;;13.90;60.77;99207.26;105649;1283;99322;-70
2022/05/14 06:56:32;;;;;;;13.70;4.50;;;;;;;13.99;60.72;99212.97;105607;1283;96541;-69
2022/05/14 06:59:05;;;;;;;14.00;4.60;;;;;;;14.14;60.57;99210.05;105675;1283;112751;-69
2022/05/14 07:01:40;;;;;;;11.10;4.50;;;;;;;14.91;59.60;99211.63;105606;1284;99253;-67
2022/05/14 07:07:06;;;;;;;12.00;4.10;;;;;;;17.76;58.61;99195.95;105610;1284;99322;-68
2022/05/14 07:09:35;;;;;;;11.10;4.00;;;;;;;19.17;58.41;99194.05;105586;1284;99229;-69
2022/05/14 07:12:09;;;;;;;11.70;4.10;;;;;;;20.34;58.34;99190.80;105574;1283;113370;-71
2022/05/14 07:14:43;;;;;;;;;;;;;;;21.31;57.91;99189.81;105538;1283;96599;-67
2022/05/14 07:17:17;;;;;;;12.00;4.00;;;;;;;21.90;57.39;99191.45;105477;1284;107854;-70
2022/05/14 07:19:44;;;;;;;10.50;4.40;;;;;;;22.86;57.27;99192.77;105472;1284;99474;-69
2022/05/14 07:22:19;;;;;;;10.50;4.10;;;;;;;23.87;57.09;99186.83;105506;1284;96665;-69
2022/05/14 07:24:47;;;;;;;9.40;3.80;;;;;;;24.63;56.43;99189.13;105589;1284;112743;-70
2022/05/14 07:27:20;;;;;;;9.90;4.10;;;;;;;25.55;56.46;99185.26;105537;1284;96636;-68
2022/05/14 07:29:48;;;;;;;11.20;3.90;;;;;;;26.52;56.04;99182.44;105514;1284;107901;-68
2022/05/14 07:32:23;;;;;;;12.40;4.30;;;;;;;27.02;55.81;99179.96;105517;1283;100078;-70
2022/05/14 07:34:51;;;;;;;9.70;4.40;;;;;;;27.35;55.49;99186.34;105569;1283;96774;-71
2022/05/14 07:37:33;;;;;;;14.90;4.50;;;;;;;27.99;54.43;99184.38;105549;1283;114046;-67
2022/05/14 07:40:10;;;;;;;9.00;4.20;;;;;;;27.78;55.38;99183.85;105577;1284;96864;-68
2022/05/14 07:42:57;;;;;;;12.40;4.50;;;;;;;28.28;54.46;99177.69;105523;1284;107762;-66
2022/05/14 07:45:48;;;;;;;12.00;4.10;;;;;;;28.77;53.73;99176.30;105641;1283;99301;-67
2022/05/14 07:48:24;;;;;;;15.00;4.70;;;;;;;29.05;53.35;99173.48;105636;1283;99226;-67
2022/05/14 07:50:56;;;;;;;10.30;4.30;;;;;;;27.99;54.01;99179.83;105622;1284;112743;-67
2022/05/14 07:53:30;;;;;;;10.80;4.20;;;;;;;28.16;52.61;99175.45;105599;1283;96975;-67
2022/05/14 07:56:04;;;;;;;12.90;4.30;;;;;;;28.43;52.18;99167.83;105560;1283;107437;-67
2022/05/14 07:58:32;;;;;;;11.40;3.80;;;;;;;28.75;51.65;99173.92;105648;1283;97748;-67
2022/05/14 08:01:10;;;;;;;13.60;4.20;;;;;;;28.51;51.99;99169.80;105621;1283;99386;-67
2022/05/14 08:03:38;;;;;;;9.70;3.90;;;;;;;28.10;51.73;99170.02;105572;1283;112830;-68
2022/05/14 08:06:10;;;;;;;12.50;3.90;;;;;;;28.38;51.21;99164.21;105651;1283;99614;-66
2022/05/14 08:08:45;;;;;;;13.20;3.30;;;;;;;28.59;50.17;99165.02;105675;1283;108528;-71
2022/05/14 08:11:17;;;;;;;10.00;3.60;;;;;;;28.87;50.54;99162.85;105674;1283;99259;-67
2022/05/14 08:13:45;;;;;;;12.20;4.40;;;;;;;28.39;50.52;99162.57;105673;1283;99207;-69
2022/05/14 08:16:17;;;;;;;;;;;;;;;27.78;50.04;99163.75;105709;1283;112701;-70
2022/05/14 08:18:50;;;;;;;10.70;3.70;;;;;;;27.67;48.95;99165.98;105713;1283;96833;-69
2022/05/14 08:24:34;;;;;;;11.20;3.50;;;;;;;28.24;48.29;99151.77;105680;1282;99362;-69
2022/05/14 08:27:14;;;;;;;16.10;3.60;;;;;;;28.00;48.35;99148.58;105582;1283;99247;-68
2022/05/14 08:29:48;;;;;;;11.80;4.10;;;;;;;27.84;48.14;99145.01;105367;1284;112463;-69
2022/05/14 08:32:20;;;;;;;12.40;3.80;;;;;;;28.20;47.25;99135.83;105504;1284;96961;-69
2022/05/14 08:34:52;;;;;;;15.70;4.90;;;;;;;28.60;47.11;99131.95;105567;1283;107852;-69
2022/05/14 08:37:24;;;;;;;9.40;3.10;;;;;;;29.10;46.87;99128.81;105424;1283;99261;-69
2022/05/14 08:40:07;;;;;;;11.90;3.70;;;;;;;29.56;46.26;99122.27;105665;1283;96558;-69
2022/05/14 08:42:41;;;;;;;8.40;3.00;;;;;;;29.78;45.46;99122.27;105616;1283;112838;-67
2022/05/14 08:45:15;;;;;;;12.10;3.60;;;;;;;29.96;45.53;99118.92;105568;1283;97033;-68
2022/05/14 08:48:01;;;;;;;10.80;3.40;;;;;;;30.13;45.28;99119.27;105304;1284;107635;-69
2022/05/14 08:50:37;;;;;;;12.10;3.70;;;;;;;29.83;45.21;99118.88;105186;1282;99298;-69
2022/05/14 08:53:12;;;;;;;15.30;3.90;;;;;;;30.06;44.87;99116.75;105461;1284;97585;-69
2022/05/14 08:56:03;;;;;;;13.30;3.50;;;;;;;30.32;44.22;99115.80;105530;1283;112876;-72
2022/05/14 08:58:52;;;;;;;9.60;3.10;;;;;;;30.31;43.87;99116.33;105567;1283;99346;-69
2022/05/14 09:01:29;;;;;;;16.10;4.30;;;;;;;30.44;43.67;99116.82;105514;1283;107696;-71
2022/05/14 09:03:57;;;;;;;10.00;3.10;;;;;;;30.45;43.10;99114.70;105476;1283;99337;-71
2022/05/14 09:06:30;;;;;;;8.50;2.70;;;;;;;29.82;42.59;99116.94;105572;1283;99314;-69
2022/05/14 09:09:02;;;;;;;9.80;3.10;;;;;;;28.72;41.60;99112.44;105620;1283;112715;-68
2022/05/14 09:11:38;;;;;;;;;;;;;;;28.26;41.91;99106.38;105670;1283;99004;-68
2022/05/14 09:14:35;;;;;;;9.60;2.80;;;;;;;28.34;42.16;99106.41;105531;1283;109203;-73
2022/05/14 09:17:12;;;;;;;6.70;2.30;;;;;;;28.91;41.95;99098.63;105465;1283;99271;-72
2022/05/14 09:19:46;;;;;;;8.10;2.80;;;;;;;29.33;41.31;99089.23;105534;1283;99345;-70
2022/05/14 09:22:27;;;;;;;9.50;2.80;;;;;;;28.93;41.01;99088.41;105477;1283;112755;-69
2022/05/14 09:25:04;;;;;;;12.80;3.70;;;;;;;29.23;40.71;99088.32;105503;1284;99843;-69
2022/05/14 09:27:56;;;;;;;10.20;2.70;;;;;;;29.52;40.63;99079.92;105494;1284;106059;-68
2022/05/14 09:30:35;;;;;;;9.60;2.90;;;;;;;29.51;40.41;99082.85;105514;1284;99343;-71
2022/05/14 09:33:10;;;;;;;7.10;2.90;;;;;;;29.61;39.87;99081.13;105222;1284;98366;-67
2022/05/14 09:35:38;;;;;;;14.90;3.40;;;;;;;29.70;39.90;99085.18;105454;1283;112721;-67
2022/05/14 09:38:23;;;;;;;9.10;2.60;;;;;;;29.45;39.48;99081.11;105453;1283;99742;-69
2022/05/14 09:41:18;;;;;;;9.60;3.00;;;;;;;28.95;39.17;99087.70;105453;1284;107933;-67
2022/05/14 09:43:52;;;;;;;9.60;3.10;;;;;;;28.70;38.74;99091.30;105471;1283;99201;-70
2022/05/14 09:46:33;;;;;;;7.60;2.50;;;;;;;28.29;38.20;99088.77;105510;1283;96622;-71
2022/05/14 09:49:08;;;;;;;9.90;2.80;;;;;;;28.04;38.31;99089.23;105368;1283;112785;-71
2022/05/14 09:52:04;;;;;;;8.30;2.70;;;;;;;27.68;37.65;99091.91;105378;1284;100887;-68
2022/05/14 09:54:45;;;;;;;6.00;2.60;;;;;;;27.47;37.46;99091.31;105458;1283;108137;-67
2022/05/14 09:57:36;;;;;;;10.90;2.80;;;;;;;27.16;37.58;99091.09;105541;1283;96580;-68
2022/05/14 10:00:22;;;;;;;8.80;2.90;;;;;;;26.57;37.68;99089.90;105393;1283;100001;-70
2022/05/14 10:03:08;;;;;;;7.70;2.70;;;;;;;26.07;37.47;99085.33;105443;1283;112822;-67
2022/05/14 10:06:01;;;;;;;8.00;2.50;;;;;;;25.65;37.42;99083.19;105575;1282;99218;-71
2022/05/14 10:09:32;;;;;;;9.50;2.80;;;;;;;25.19;37.18;99087.55;105626;1283;107776;-66
2022/05/14 10:12:10;;;;;;;20.20;9.00;;;;;;;24.48;37.02;99084.91;104746;1289;97727;-69
2022/05/14 10:14:44;;;;;;;12.70;3.80;;;;;;;24.09;37.01;99085.22;104678;1289;99440;-68
2022/05/14 10:17:35;;;;;;;11.30;3.60;;;;;;;23.82;36.65;99091.11;105019;1285;113270;-68
2022/05/14 10:20:19;;;;;;;9.30;2.90;;;;;;;23.46;36.57;99079.83;105509;1283;99245;-70
2022/05/14 10:26:45;;;;;;;8.30;2.70;;;;;;;22.72;36.69;99083.89;105710;1281;96745;-71
2022/05/14 10:30:05;;;;;;;6.40;2.70;;;;;;;22.56;36.40;99081.83;105411;1283;97284;-70
2022/05/14 10:32:37;;;;;;;8.60;2.80;;;;;;;22.19;36.27;99086.72;104525;1291;112797;-68
2022/05/14 10:35:29;;;;;;;10.70;3.50;;;;;;;21.83;36.12;99087.10;105304;1283;99462;-74
2022/05/14 10:38:08;;;;;;;8.60;2.70;;;;;;;21.41;36.07;99086.40;105268;1283;107724;-70
2022/05/14 10:40:48;;;;;;;9.30;2.60;;;;;;;21.07;36.00;99086.89;105417;1283;99273;-68
2022/05/14 10:43:37;;;;;;;8.00;2.70;;;;;;;20.75;36.14;99089.63;105348;1284;99358;-67
2022/05/14 10:46:18;;;;;;;8.40;2.50;;;;;;;20.47;36.09;99090.09;105607;1283;113468;-66
2022/05/14 10:49:03;;;;;;;12.00;2.40;;;;;;;20.13;35.99;99087.96;105521;1283;98938;-67
2022/05/14 10:51:43;;;;;;;5.90;2.30;;;;;;;19.92;36.14;99090.19;105578;1283;108504;-68
2022/05/14 10:54:24;;;;;;;5.40;2.10;;;;;;;19.83;36.21;99085.55;105619;1281;99388;-69
2022/05/14 10:57:02;;;;;;;7.40;2.40;;;;;;;19.76;36.18;99088.06;105775;1281;99218;-68
2022/05/14 10:59:50;;;;;;;16.80;3.70;;;;;;;19.69;36.25;99088.51;105478;1283;113448;-68
2022/05/14 11:02:32;;;;;;;11.60;2.80;;;;;;;19.63;36.25;99086.62;105713;1283;99237;-67
2022/05/14 11:05:02;;;;;;;6.20;2.30;;;;;;;19.58;36.32;99081.09;105516;1283;107785;-66
2022/05/14 11:07:39;;;;;;;9.70;2.60;;;;;;;19.54;36.36;99080.09;105335;1282;99257;-67
2022/05/14 11:10:13;;;;;;;11.90;3.60;;;;;;;19.51;36.44;99080.09;105194;1283;96853;-73
2022/05/14 11:12:46;;;;;;;8.50;2.70;;;;;;;19.57;36.59;99073.23;105445;1283;112803;-71
2022/05/14 11:15:22;;;;;;;10.80;2.60;;;;;;;19.59;36.65;99068.04;105714;1283;96612;-74
2022/05/14 11:18:05;;;;;;;5.60;2.20;;;;;;;19.58;36.57;99079.44;105807;1283;107670;-65
2022/05/14 11:20:36;;;;;;;8.60;2.40;;;;;;;19.50;36.54;99082.83;105430;1283;96612;-66
2022/05/14 11:23:11;;;;;;;7.00;2.70;;;;;;;19.36;36.63;99080.96;105668;1283;99266;-67
2022/05/14 11:25:42;;;;;;;11.70;3.20;;;;;;;19.29;36.75;99077.55;105597;1283;113475;-66
2022/05/14 11:28:30;;;;;;;9.40;2.50;;;;;;;19.27;36.82;99068.83;105632;1282;96590;-66
2022/05/14 11:31:16;;;;;;;9.00;2.50;;;;;;;19.29;36.92;99066.08;105459;1283;108357;-66
2022/05/14 11:33:49;;;;;;;13.70;2.60;;;;;;;19.38;37.01;99074.33;105514;1283;99156;-66
2022/05/14 11:36:28;;;;;;;7.70;2.20;;;;;;;19.39;36.94;99067.48;105503;1283;99252;-66
2022/05/14 11:39:25;;;;;;;7.20;2.10;;;;;;;19.36;36.90;99071.39;105547;1282;113397;-66
2022/05/14 11:42:28;;;;;;;8.10;2.00;;;;;;;19.26;36.88;99068.56;105673;1283;99241;-66
2022/05/14 11:45:05;;;;;;;5.60;2.00;;;;;;;19.19;37.05;99069.33;105560;1283;110728;-66
2022/05/14 11:47:53;;;;;;;4.50;2.10;;;;;;;19.16;37.19;99073.60;105336;1283;99333;-66
2022/05/14 11:50:36;;;;;;;7.10;1.90;;;;;;;19.16;37.34;99068.68;105451;1283;99250;-66
2022/05/14 11:53:35;;;;;;;9.00;2.30;;;;;;;19.22;37.35;99064.64;105547;1284;113383;-67
2022/05/14 11:56:15;;;;;;;11.20;2.30;;;;;;;19.29;37.47;99066.10;105376;1284;97785;-66
2022/05/14 11:59:27;;;;;;;9.10;2.30;;;;;;;19.32;37.46;99065.39;105169;1283;106931;-66
2022/05/14 12:02:00;;;;;;;8.10;2.00;;;;;;;19.36;37.59;99063.70;105231;1283;99316;-65
2022/05/14 12:04:44;;;;;;;10.70;2.00;;;;;;;19.38;37.63;99064.04;105605;1283;99355;-68
2022/05/14 12:07:36;;;;;;;7.20;2.60;;;;;;;19.38;37.67;99063.49;105508;1283;113490;-66
2022/05/14 12:10:45;;;;;;;10.40;2.00;;;;;;;19.44;37.85;99062.45;105502;1284;97034;-68
2022/05/14 12:13:39;;;;;;;4.50;1.80;;;;;;;19.58;37.93;99058.25;105487;1283;109877;-68